PWSweather.com
Personal Weather Stations
Station Observations
KCTCOLEB1
Sandy Brook, Colebrook, CT 06021

Sandy BrookColebrook, CT 06021

Lat: 42.0018, Lon: -73.0825

Elevation: 935

Station Type: Davis Vantage Pro2 + Solar + UV

Latest ConditionsUpdated 5:30:00 PM EDT Wednesday, Oct 22, 2014
Currently Today's Max Today's Min Today's Average
Temperature 48.8°F9.3°C 52.4°F11.3°C 48.8°F9.3°C 50.3°F10.2°C
Dew Point 48.0°F8.9°C 50.8°F10.4°C 47.6°F8.7°C 48.7°F9.3°C
Winds 1.3 mph W2.1 kmh W 3.4 mph SSE5.5 kmh SSE - 1.0 mph 1.6 kmh
Wind Gusts 2.0 mph3.2 kmh 8.0 mph12.9 kmh - -
Humidity 97% 97% 89% 94%
Pressure 29.89 in1012.2 mb 30.00 in1015.9 mb 29.89 in1012.2 mb -
Precipitation - 0.04 in1.0 mm - -
Hour Temp Dew Point Humidity Winds Wind Gusts Pressure Precip Precip Rate Daily Precip Total
05:30 PM 48.8°F9.3°C 48.0°F8.9°C 97% 1.3 mph W2.1 kmh W 2.0 mph3.2 kmh 29.89 in1012.2 mb 0.00 in0.0 mm 0.00 in/hr0.0 mm/hr 0.04 in1.0 mm
05:20 PM 48.9°F9.4°C 48.1°F8.9°C 97% 0.5 mph SSW0.8 kmh SSW 2.0 mph3.2 kmh 29.89 in1012.2 mb 0.00 in0.0 mm 0.00 in/hr0.0 mm/hr 0.04 in1.0 mm
05:10 PM 49.0°F9.4°C 48.2°F9.0°C 97% 1.5 mph NW2.4 kmh NW 2.0 mph3.2 kmh 29.89 in1012.2 mb 0.00 in0.0 mm 0.00 in/hr0.0 mm/hr 0.04 in1.0 mm
05:00 PM 49.1°F9.5°C 48.3°F9.1°C 97% 1.8 mph SW2.9 kmh SW 2.0 mph3.2 kmh 29.89 in1012.2 mb 0.00 in0.0 mm 0.00 in/hr0.0 mm/hr 0.04 in1.0 mm
04:50 PM 49.1°F9.5°C 48.3°F9.1°C 97% 0.5 mph SW0.8 kmh SW 1.0 mph1.6 kmh 29.89 in1012.2 mb 0.00 in0.0 mm 0.00 in/hr0.0 mm/hr 0.04 in1.0 mm
04:40 PM 49.1°F9.5°C 48.0°F8.9°C 96% 0.8 mph WSW1.3 kmh WSW 2.0 mph3.2 kmh 29.89 in1012.2 mb 0.00 in0.0 mm 0.00 in/hr0.0 mm/hr 0.04 in1.0 mm
04:30 PM 49.3°F9.6°C 48.2°F9.0°C 96% 0.8 mph SW1.3 kmh SW 2.0 mph3.2 kmh 29.89 in1012.2 mb 0.01 in0.3 mm 0.06 in/hr1.5 mm/hr 0.04 in1.0 mm
04:20 PM 49.4°F9.7°C 48.3°F9.1°C 96% 2.6 mph WSW4.2 kmh WSW 3.0 mph4.8 kmh 29.89 in1012.2 mb 0.00 in0.0 mm 0.00 in/hr0.0 mm/hr 0.03 in0.8 mm
04:10 PM 49.5°F9.7°C 48.4°F9.1°C 96% 0.7 mph SW1.1 kmh SW 1.0 mph1.6 kmh 29.90 in1012.5 mb 0.01 in0.3 mm 0.06 in/hr1.5 mm/hr 0.03 in0.8 mm
04:00 PM 49.5°F9.7°C 48.1°F8.9°C 95% 0.7 mph S1.1 kmh S 2.0 mph3.2 kmh 29.90 in1012.5 mb 0.00 in0.0 mm 0.00 in/hr0.0 mm/hr 0.02 in0.5 mm
03:50 PM 49.6°F9.8°C 48.2°F9.0°C 95% Calm Calm 1.0 mph1.6 kmh 29.91 in1012.9 mb 0.01 in0.3 mm 0.06 in/hr1.5 mm/hr 0.02 in0.5 mm
03:40 PM 49.7°F9.8°C 48.3°F9.1°C 95% 1.2 mph WNW1.9 kmh WNW 2.0 mph3.2 kmh 29.91 in1012.9 mb 0.00 in0.0 mm 0.00 in/hr0.0 mm/hr 0.01 in0.3 mm
03:30 PM 49.8°F9.9°C 48.4°F9.1°C 95% 0.6 mph S1.0 kmh S 1.0 mph1.6 kmh 29.91 in1012.9 mb 0.00 in0.0 mm 0.00 in/hr0.0 mm/hr 0.01 in0.3 mm
03:20 PM 49.8°F9.9°C 48.5°F9.2°C 95% 0.9 mph SSE1.4 kmh SSE 2.0 mph3.2 kmh 29.91 in1012.9 mb 0.00 in0.0 mm 0.00 in/hr0.0 mm/hr 0.01 in0.3 mm
03:10 PM 49.9°F9.9°C 48.5°F9.2°C 95% Calm Calm -- 29.92 in1013.2 mb 0.00 in0.0 mm 0.00 in/hr0.0 mm/hr 0.01 in0.3 mm
03:00 PM 50.0°F10.0°C 48.6°F9.2°C 95% 0.9 mph SW1.4 kmh SW 2.0 mph3.2 kmh 29.92 in1013.2 mb 0.00 in0.0 mm 0.00 in/hr0.0 mm/hr 0.01 in0.3 mm
02:50 PM 50.0°F10.0°C 48.6°F9.2°C 95% 1.0 mph W1.6 kmh W 2.0 mph3.2 kmh 29.92 in1013.2 mb 0.00 in0.0 mm 0.00 in/hr0.0 mm/hr 0.01 in0.3 mm
02:40 PM 50.0°F10.0°C 48.6°F9.2°C 95% 0.5 mph W0.8 kmh W 2.0 mph3.2 kmh 29.93 in1013.5 mb 0.00 in0.0 mm 0.00 in/hr0.0 mm/hr 0.01 in0.3 mm
02:30 PM 50.0°F10.0°C 48.3°F9.1°C 94% 0.5 mph NW0.8 kmh NW 1.0 mph1.6 kmh 29.93 in1013.5 mb 0.00 in0.0 mm 0.00 in/hr0.0 mm/hr 0.01 in0.3 mm
02:20 PM 50.1°F10.1°C 48.4°F9.1°C 94% 0.6 mph SW1.0 kmh SW 2.0 mph3.2 kmh 29.93 in1013.5 mb 0.00 in0.0 mm 0.00 in/hr0.0 mm/hr 0.01 in0.3 mm
02:10 PM 50.2°F10.1°C 48.3°F9.1°C 93% 2.4 mph S3.9 kmh S 6.0 mph9.7 kmh 29.94 in1013.9 mb 0.00 in0.0 mm 0.00 in/hr0.0 mm/hr 0.01 in0.3 mm
02:00 PM 50.4°F10.2°C 48.5°F9.2°C 93% 0.8 mph WSW1.3 kmh WSW 1.0 mph1.6 kmh 29.94 in1013.9 mb 0.00 in0.0 mm 0.00 in/hr0.0 mm/hr 0.01 in0.3 mm
01:50 PM 50.5°F10.3°C 48.3°F9.1°C 92% 0.9 mph SSE1.4 kmh SSE 2.0 mph3.2 kmh 29.95 in1014.2 mb 0.00 in0.0 mm 0.00 in/hr0.0 mm/hr 0.01 in0.3 mm
01:40 PM 50.6°F10.3°C 48.1°F8.9°C 91% 0.3 mph SW0.5 kmh SW 1.0 mph1.6 kmh 29.95 in1014.2 mb 0.00 in0.0 mm 0.00 in/hr0.0 mm/hr 0.01 in0.3 mm
01:30 PM 50.6°F10.3°C 47.8°F8.8°C 90% 1.1 mph WSW1.8 kmh WSW 2.0 mph3.2 kmh 29.95 in1014.2 mb 0.00 in0.0 mm 0.00 in/hr0.0 mm/hr 0.01 in0.3 mm
01:20 PM 50.8°F10.4°C 48.3°F9.1°C 91% 1.7 mph SW2.7 kmh SW 3.0 mph4.8 kmh 29.96 in1014.6 mb 0.00 in0.0 mm 0.00 in/hr0.0 mm/hr 0.01 in0.3 mm
01:10 PM 50.8°F10.4°C 48.0°F8.9°C 90% 0.1 mph WSW0.2 kmh WSW 1.0 mph1.6 kmh 29.97 in1014.9 mb 0.00 in0.0 mm 0.00 in/hr0.0 mm/hr 0.01 in0.3 mm
01:00 PM 50.9°F10.5°C 48.1°F8.9°C 90% 1.6 mph S2.6 kmh S 3.0 mph4.8 kmh 29.97 in1014.9 mb 0.00 in0.0 mm 0.00 in/hr0.0 mm/hr 0.01 in0.3 mm
12:50 PM 51.0°F10.6°C 48.2°F9.0°C 90% 2.9 mph WNW4.7 kmh WNW 6.0 mph9.7 kmh 29.96 in1014.6 mb 0.00 in0.0 mm 0.00 in/hr0.0 mm/hr 0.01 in0.3 mm
12:40 PM 51.0°F10.6°C 47.9°F8.8°C 89% 0.1 mph SE0.2 kmh SE -- 29.97 in1014.9 mb 0.00 in0.0 mm 0.00 in/hr0.0 mm/hr 0.01 in0.3 mm
12:30 PM 51.0°F10.6°C 48.2°F9.0°C 90% 0.3 mph SSW0.5 kmh SSW 1.0 mph1.6 kmh 29.98 in1015.2 mb 0.00 in0.0 mm 0.00 in/hr0.0 mm/hr 0.01 in0.3 mm
12:20 PM 51.1°F10.6°C 48.3°F9.1°C 90% 1.0 mph NW1.6 kmh NW 2.0 mph3.2 kmh 29.98 in1015.2 mb 0.00 in0.0 mm 0.00 in/hr0.0 mm/hr 0.01 in0.3 mm
12:10 PM 51.1°F10.6°C 48.0°F8.9°C 89% 0.8 mph WSW1.3 kmh WSW 2.0 mph3.2 kmh 29.98 in1015.2 mb 0.00 in0.0 mm 0.00 in/hr0.0 mm/hr 0.01 in0.3 mm
12:00 PM 51.0°F10.6°C 48.2°F9.0°C 90% 1.4 mph SW2.3 kmh SW 3.0 mph4.8 kmh 29.98 in1015.2 mb 0.00 in0.0 mm 0.00 in/hr0.0 mm/hr 0.01 in0.3 mm
11:50 AM 50.9°F10.5°C 48.4°F9.1°C 91% 1.1 mph SSW1.8 kmh SSW 1.0 mph1.6 kmh 29.98 in1015.2 mb 0.00 in0.0 mm 0.00 in/hr0.0 mm/hr 0.01 in0.3 mm
11:40 AM 50.7°F10.4°C 48.7°F9.3°C 93% 1.2 mph S1.9 kmh S 2.0 mph3.2 kmh 29.98 in1015.2 mb 0.00 in0.0 mm 0.00 in/hr0.0 mm/hr 0.01 in0.3 mm
11:30 AM 50.5°F10.3°C 48.6°F9.2°C 93% 3.4 mph SSE5.5 kmh SSE 8.0 mph12.9 kmh 29.98 in1015.2 mb 0.00 in0.0 mm 0.00 in/hr0.0 mm/hr 0.01 in0.3 mm
11:20 AM 50.4°F10.2°C 48.5°F9.2°C 93% 0.2 mph W0.3 kmh W 1.0 mph1.6 kmh 29.99 in1015.6 mb 0.00 in0.0 mm 0.00 in/hr0.0 mm/hr 0.01 in0.3 mm
11:10 AM 50.3°F10.2°C 48.4°F9.1°C 93% 1.8 mph WSW2.9 kmh WSW 3.0 mph4.8 kmh 29.99 in1015.6 mb 0.00 in0.0 mm 0.00 in/hr0.0 mm/hr 0.01 in0.3 mm
11:00 AM 50.1°F10.1°C 48.2°F9.0°C 93% 1.0 mph WNW1.6 kmh WNW 4.0 mph6.4 kmh 29.99 in1015.6 mb 0.00 in0.0 mm 0.00 in/hr0.0 mm/hr 0.01 in0.3 mm
10:50 AM 50.0°F10.0°C 48.4°F9.1°C 94% 0.7 mph SSW1.1 kmh SSW 3.0 mph4.8 kmh 29.99 in1015.6 mb 0.00 in0.0 mm 0.00 in/hr0.0 mm/hr 0.01 in0.3 mm
10:40 AM 50.0°F10.0°C 48.3°F9.1°C 94% 1.0 mph SW1.6 kmh SW 2.0 mph3.2 kmh 30.00 in1015.9 mb 0.00 in0.0 mm 0.00 in/hr0.0 mm/hr 0.01 in0.3 mm
10:30 AM 50.0°F10.0°C 48.1°F8.9°C 93% 1.2 mph SW1.9 kmh SW 2.0 mph3.2 kmh 30.00 in1015.9 mb 0.00 in0.0 mm 0.00 in/hr0.0 mm/hr 0.01 in0.3 mm
10:20 AM 50.0°F10.0°C 48.4°F9.1°C 94% 1.5 mph SW2.4 kmh SW 2.0 mph3.2 kmh 30.00 in1015.9 mb 0.00 in0.0 mm 0.00 in/hr0.0 mm/hr 0.01 in0.3 mm
10:10 AM 50.0°F10.0°C 48.3°F9.1°C 94% 1.6 mph WSW2.6 kmh WSW 2.0 mph3.2 kmh 30.00 in1015.9 mb 0.00 in0.0 mm 0.00 in/hr0.0 mm/hr 0.01 in0.3 mm
10:00 AM 49.9°F9.9°C 48.0°F8.9°C 93% 0.5 mph SW0.8 kmh SW 1.0 mph1.6 kmh 30.00 in1015.9 mb 0.00 in0.0 mm 0.00 in/hr0.0 mm/hr 0.01 in0.3 mm
09:50 AM 49.9°F9.9°C 48.2°F9.0°C 94% 0.8 mph SW1.3 kmh SW 1.0 mph1.6 kmh 30.00 in1015.9 mb 0.00 in0.0 mm 0.00 in/hr0.0 mm/hr 0.01 in0.3 mm
09:40 AM 49.8°F9.9°C 48.2°F9.0°C 94% 1.1 mph SW1.8 kmh SW 2.0 mph3.2 kmh 30.00 in1015.9 mb 0.00 in0.0 mm 0.00 in/hr0.0 mm/hr 0.01 in0.3 mm
09:30 AM 49.8°F9.9°C 48.1°F8.9°C 94% 0.8 mph W1.3 kmh W 2.0 mph3.2 kmh 30.00 in1015.9 mb 0.00 in0.0 mm 0.00 in/hr0.0 mm/hr 0.01 in0.3 mm
09:20 AM 49.8°F9.9°C 48.2°F9.0°C 94% 1.3 mph SSE2.1 kmh SSE 2.0 mph3.2 kmh 30.00 in1015.9 mb 0.00 in0.0 mm 0.00 in/hr0.0 mm/hr 0.01 in0.3 mm
09:10 AM 49.9°F9.9°C 48.2°F9.0°C 94% 0.5 mph SW0.8 kmh SW 4.0 mph6.4 kmh 30.00 in1015.9 mb 0.00 in0.0 mm 0.00 in/hr0.0 mm/hr 0.01 in0.3 mm
09:00 AM 49.9°F9.9°C 48.0°F8.9°C 93% 0.5 mph S0.8 kmh S 2.0 mph3.2 kmh 29.99 in1015.6 mb 0.00 in0.0 mm 0.00 in/hr0.0 mm/hr 0.01 in0.3 mm
08:50 AM 49.9°F9.9°C 48.2°F9.0°C 94% 1.6 mph SW2.6 kmh SW 2.0 mph3.2 kmh 29.99 in1015.6 mb 0.00 in0.0 mm 0.00 in/hr0.0 mm/hr 0.01 in0.3 mm
08:40 AM 49.8°F9.9°C 47.9°F8.8°C 93% 0.3 mph SW0.5 kmh SW 1.0 mph1.6 kmh 29.98 in1015.2 mb 0.00 in0.0 mm 0.00 in/hr0.0 mm/hr 0.01 in0.3 mm
08:30 AM 49.7°F9.8°C 48.0°F8.9°C 94% 1.1 mph S1.8 kmh S 2.0 mph3.2 kmh 29.98 in1015.2 mb 0.00 in0.0 mm 0.00 in/hr0.0 mm/hr 0.01 in0.3 mm
08:20 AM 49.6°F9.8°C 47.9°F8.8°C 94% 0.8 mph WSW1.3 kmh WSW 2.0 mph3.2 kmh 29.98 in1015.2 mb 0.00 in0.0 mm 0.00 in/hr0.0 mm/hr 0.01 in0.3 mm
08:10 AM 49.6°F9.8°C 47.9°F8.8°C 94% 0.2 mph WSW0.3 kmh WSW -- 29.98 in1015.2 mb 0.00 in0.0 mm 0.00 in/hr0.0 mm/hr 0.01 in0.3 mm
08:00 AM 49.6°F9.8°C 47.6°F8.7°C 93% 0.5 mph WSW0.8 kmh WSW 3.0 mph4.8 kmh 29.98 in1015.2 mb 0.00 in0.0 mm 0.00 in/hr0.0 mm/hr 0.01 in0.3 mm
07:50 AM 49.6°F9.8°C 47.9°F8.8°C 94% 1.9 mph WSW3.1 kmh WSW 3.0 mph4.8 kmh 29.97 in1014.9 mb 0.00 in0.0 mm 0.00 in/hr0.0 mm/hr 0.01 in0.3 mm
07:40 AM 49.6°F9.8°C 47.9°F8.8°C 94% 1.1 mph SW1.8 kmh SW 3.0 mph4.8 kmh 29.97 in1014.9 mb 0.00 in0.0 mm 0.00 in/hr0.0 mm/hr 0.01 in0.3 mm
07:30 AM 49.6°F9.8°C 47.9°F8.8°C 94% 1.4 mph S2.3 kmh S 3.0 mph4.8 kmh 29.97 in1014.9 mb 0.00 in0.0 mm 0.00 in/hr0.0 mm/hr 0.01 in0.3 mm
07:20 AM 49.6°F9.8°C 47.9°F8.8°C 94% 0.8 mph SW1.3 kmh SW 2.0 mph3.2 kmh 29.97 in1014.9 mb 0.00 in0.0 mm 0.00 in/hr0.0 mm/hr 0.01 in0.3 mm
07:10 AM 49.6°F9.8°C 47.9°F8.8°C 94% 0.8 mph SW1.3 kmh SW 4.0 mph6.4 kmh 29.97 in1014.9 mb 0.00 in0.0 mm 0.00 in/hr0.0 mm/hr 0.01 in0.3 mm
07:00 AM 49.6°F9.8°C 47.9°F8.8°C 94% 0.9 mph WSW1.4 kmh WSW 2.0 mph3.2 kmh 29.97 in1014.9 mb 0.00 in0.0 mm 0.00 in/hr0.0 mm/hr 0.01 in0.3 mm
06:50 AM 49.6°F9.8°C 47.9°F8.8°C 94% 1.3 mph WSW2.1 kmh WSW 2.0 mph3.2 kmh 29.97 in1014.9 mb 0.00 in0.0 mm 0.00 in/hr0.0 mm/hr 0.01 in0.3 mm
06:40 AM 49.6°F9.8°C 47.9°F8.8°C 94% 1.3 mph WSW2.1 kmh WSW 2.0 mph3.2 kmh 29.96 in1014.6 mb 0.00 in0.0 mm 0.00 in/hr0.0 mm/hr 0.01 in0.3 mm
06:30 AM 49.6°F9.8°C 47.9°F8.8°C 94% 1.3 mph NNW2.1 kmh NNW 2.0 mph3.2 kmh 29.96 in1014.6 mb 0.00 in0.0 mm 0.00 in/hr0.0 mm/hr 0.01 in0.3 mm
06:20 AM 49.7°F9.8°C 48.0°F8.9°C 94% 2.2 mph SW3.5 kmh SW 4.0 mph6.4 kmh 29.96 in1014.6 mb 0.00 in0.0 mm 0.00 in/hr0.0 mm/hr 0.01 in0.3 mm
06:10 AM 49.7°F9.8°C 48.3°F9.1°C 95% 0.8 mph WNW1.3 kmh WNW 2.0 mph3.2 kmh 29.96 in1014.6 mb 0.00 in0.0 mm 0.00 in/hr0.0 mm/hr 0.01 in0.3 mm
06:00 AM 49.7°F9.8°C 48.3°F9.1°C 95% 1.6 mph WSW2.6 kmh WSW 3.0 mph4.8 kmh 29.96 in1014.6 mb 0.00 in0.0 mm 0.00 in/hr0.0 mm/hr 0.01 in0.3 mm
05:50 AM 49.8°F9.9°C 48.4°F9.1°C 95% 1.2 mph WSW1.9 kmh WSW 2.0 mph3.2 kmh 29.95 in1014.2 mb 0.00 in0.0 mm 0.00 in/hr0.0 mm/hr 0.01 in0.3 mm
05:40 AM 49.8°F9.9°C 48.5°F9.2°C 95% 1.6 mph WSW2.6 kmh WSW 2.0 mph3.2 kmh 29.96 in1014.6 mb 0.00 in0.0 mm 0.00 in/hr0.0 mm/hr 0.01 in0.3 mm
05:30 AM 49.9°F9.9°C 48.5°F9.2°C 95% Calm Calm -- 29.96 in1014.6 mb 0.00 in0.0 mm 0.00 in/hr0.0 mm/hr 0.01 in0.3 mm
05:20 AM 49.9°F9.9°C 48.5°F9.2°C 95% 0.6 mph SW1.0 kmh SW 2.0 mph3.2 kmh 29.95 in1014.2 mb 0.00 in0.0 mm 0.00 in/hr0.0 mm/hr 0.01 in0.3 mm
05:10 AM 49.9°F9.9°C 48.5°F9.2°C 95% 1.7 mph SW2.7 kmh SW 3.0 mph4.8 kmh 29.95 in1014.2 mb 0.00 in0.0 mm 0.00 in/hr0.0 mm/hr 0.01 in0.3 mm
05:00 AM 50.0°F10.0°C 48.6°F9.2°C 95% 0.2 mph WSW0.3 kmh WSW 1.0 mph1.6 kmh 29.95 in1014.2 mb 0.00 in0.0 mm 0.00 in/hr0.0 mm/hr 0.01 in0.3 mm
04:50 AM 50.0°F10.0°C 48.6°F9.2°C 95% 1.3 mph WSW2.1 kmh WSW 2.0 mph3.2 kmh 29.95 in1014.2 mb 0.00 in0.0 mm 0.00 in/hr0.0 mm/hr 0.01 in0.3 mm
04:40 AM 50.1°F10.1°C 48.7°F9.3°C 95% 1.2 mph WNW1.9 kmh WNW 1.0 mph1.6 kmh 29.95 in1014.2 mb 0.00 in0.0 mm 0.00 in/hr0.0 mm/hr 0.01 in0.3 mm
04:30 AM 50.1°F10.1°C 48.7°F9.3°C 95% 2.3 mph WNW3.7 kmh WNW 4.0 mph6.4 kmh 29.95 in1014.2 mb 0.00 in0.0 mm 0.00 in/hr0.0 mm/hr 0.01 in0.3 mm
04:20 AM 50.2°F10.1°C 48.8°F9.3°C 95% 1.2 mph NW1.9 kmh NW 3.0 mph4.8 kmh 29.95 in1014.2 mb 0.00 in0.0 mm 0.00 in/hr0.0 mm/hr 0.01 in0.3 mm
04:10 AM 50.3°F10.2°C 49.2°F9.6°C 96% 2.1 mph WSW3.4 kmh WSW 3.0 mph4.8 kmh 29.95 in1014.2 mb 0.00 in0.0 mm 0.00 in/hr0.0 mm/hr 0.01 in0.3 mm
04:00 AM 50.4°F10.2°C 49.0°F9.4°C 95% 1.1 mph WSW1.8 kmh WSW 2.0 mph3.2 kmh 29.95 in1014.2 mb 0.00 in0.0 mm 0.00 in/hr0.0 mm/hr 0.01 in0.3 mm
03:50 AM 50.5°F10.3°C 49.1°F9.5°C 95% 0.2 mph WSW0.3 kmh WSW 1.0 mph1.6 kmh 29.94 in1013.9 mb 0.00 in0.0 mm 0.00 in/hr0.0 mm/hr 0.01 in0.3 mm
03:40 AM 50.5°F10.3°C 49.2°F9.6°C 95% 1.0 mph WSW1.6 kmh WSW 2.0 mph3.2 kmh 29.94 in1013.9 mb 0.00 in0.0 mm 0.00 in/hr0.0 mm/hr 0.01 in0.3 mm
03:30 AM 50.6°F10.3°C 49.2°F9.6°C 95% 0.8 mph W1.3 kmh W 2.0 mph3.2 kmh 29.94 in1013.9 mb 0.00 in0.0 mm 0.00 in/hr0.0 mm/hr 0.01 in0.3 mm
03:20 AM 50.7°F10.4°C 49.3°F9.6°C 95% 1.2 mph W1.9 kmh W 2.0 mph3.2 kmh 29.94 in1013.9 mb 0.00 in0.0 mm 0.00 in/hr0.0 mm/hr 0.01 in0.3 mm
03:10 AM 50.8°F10.4°C 49.7°F9.8°C 96% 0.9 mph WSW1.4 kmh WSW 1.0 mph1.6 kmh 29.94 in1013.9 mb 0.00 in0.0 mm 0.00 in/hr0.0 mm/hr 0.01 in0.3 mm
03:00 AM 50.8°F10.4°C 49.7°F9.8°C 96% 1.0 mph W1.6 kmh W 2.0 mph3.2 kmh 29.94 in1013.9 mb 0.00 in0.0 mm 0.00 in/hr0.0 mm/hr 0.01 in0.3 mm
02:50 AM 50.9°F10.5°C 49.8°F9.9°C 96% 1.9 mph SSW3.1 kmh SSW 4.0 mph6.4 kmh 29.94 in1013.9 mb 0.00 in0.0 mm 0.00 in/hr0.0 mm/hr 0.01 in0.3 mm
02:40 AM 51.0°F10.6°C 49.9°F9.9°C 96% 0.8 mph WSW1.3 kmh WSW 1.0 mph1.6 kmh 29.94 in1013.9 mb 0.00 in0.0 mm 0.00 in/hr0.0 mm/hr 0.01 in0.3 mm
02:30 AM 51.0°F10.6°C 49.9°F9.9°C 96% 1.1 mph WSW1.8 kmh WSW 1.0 mph1.6 kmh 29.95 in1014.2 mb 0.00 in0.0 mm 0.00 in/hr0.0 mm/hr 0.01 in0.3 mm
02:20 AM 51.1°F10.6°C 50.0°F10.0°C 96% 0.7 mph W1.1 kmh W 2.0 mph3.2 kmh 29.95 in1014.2 mb 0.00 in0.0 mm 0.00 in/hr0.0 mm/hr 0.01 in0.3 mm
02:10 AM 51.1°F10.6°C 50.0°F10.0°C 96% 0.2 mph NW0.3 kmh NW 1.0 mph1.6 kmh 29.95 in1014.2 mb 0.00 in0.0 mm 0.00 in/hr0.0 mm/hr 0.01 in0.3 mm
02:00 AM 51.2°F10.7°C 50.1°F10.1°C 96% 0.8 mph WNW1.3 kmh WNW 2.0 mph3.2 kmh 29.95 in1014.2 mb 0.00 in0.0 mm 0.00 in/hr0.0 mm/hr 0.01 in0.3 mm
01:50 AM 51.3°F10.7°C 50.2°F10.1°C 96% 1.8 mph WSW2.9 kmh WSW 3.0 mph4.8 kmh 29.94 in1013.9 mb 0.01 in0.3 mm 0.06 in/hr1.5 mm/hr 0.01 in0.3 mm
01:40 AM 51.4°F10.8°C 50.3°F10.2°C 96% 0.7 mph WSW1.1 kmh WSW 2.0 mph3.2 kmh 29.94 in1013.9 mb 0.00 in0.0 mm 0.00 in/hr0.0 mm/hr 0.00 in0.0 mm
01:30 AM 51.5°F10.8°C 50.4°F10.2°C 96% 0.2 mph WSW0.3 kmh WSW 1.0 mph1.6 kmh 29.95 in1014.2 mb 0.00 in0.0 mm 0.00 in/hr0.0 mm/hr 0.00 in0.0 mm
01:20 AM 51.6°F10.9°C 50.5°F10.3°C 96% 0.6 mph W1.0 kmh W 3.0 mph4.8 kmh 29.95 in1014.2 mb 0.00 in0.0 mm 0.00 in/hr0.0 mm/hr 0.00 in0.0 mm
01:10 AM 51.7°F10.9°C 50.3°F10.2°C 95% 1.0 mph SW1.6 kmh SW 2.0 mph3.2 kmh 29.95 in1014.2 mb 0.00 in0.0 mm 0.00 in/hr0.0 mm/hr 0.00 in0.0 mm
01:00 AM 51.8°F11.0°C 50.4°F10.2°C 95% Calm Calm -- 29.96 in1014.6 mb 0.00 in0.0 mm 0.00 in/hr0.0 mm/hr 0.00 in0.0 mm
12:50 AM 52.0°F11.1°C 50.6°F10.3°C 95% 0.2 mph WSW0.3 kmh WSW -- 29.96 in1014.6 mb 0.00 in0.0 mm 0.00 in/hr0.0 mm/hr 0.00 in0.0 mm
12:40 AM 52.2°F11.2°C 50.8°F10.4°C 95% 0.8 mph WSW1.3 kmh WSW 2.0 mph3.2 kmh 29.96 in1014.6 mb 0.00 in0.0 mm 0.00 in/hr0.0 mm/hr 0.00 in0.0 mm
12:30 AM 52.3°F11.3°C 50.6°F10.3°C 94% 0.3 mph WNW0.5 kmh WNW 1.0 mph1.6 kmh 29.96 in1014.6 mb 0.00 in0.0 mm 0.00 in/hr0.0 mm/hr 0.00 in0.0 mm
12:20 AM 52.4°F11.3°C 50.7°F10.4°C 94% 0.6 mph WNW1.0 kmh WNW 1.0 mph1.6 kmh 29.96 in1014.6 mb 0.00 in0.0 mm 0.00 in/hr0.0 mm/hr 0.00 in0.0 mm
12:10 AM 52.4°F11.3°C 50.4°F10.2°C 93% 0.3 mph WNW0.5 kmh WNW 1.0 mph1.6 kmh 29.96 in1014.6 mb 0.00 in0.0 mm 0.00 in/hr0.0 mm/hr 0.00 in0.0 mm
12:00 AM 52.4°F11.3°C 50.7°F10.4°C 94% 0.9 mph WSW1.4 kmh WSW 1.0 mph1.6 kmh 29.96 in1014.6 mb 0.00 in0.0 mm 0.00 in/hr0.0 mm/hr 0.00 in0.0 mm